Allerton, Iowa
Current Conditions -  °F | °C
As of 4:35 AM on Tuesday 27 Jan 2015 (Local Time) from KCNC Reporting Station
Clear Clear  
Wind Chill: 26°   Ceiling: Unl
Heat Index: 32°   Visibility: 10mi
Dew Point: 30°   Wind: 7mph
Humidity: 93%   Direction: 300°WNW
Pressure: 30.06"   Gusts: NA
Location:  40.71°N, 93.37°W
Report Text: KCNC 271035Z AUTO 30006KT 10SM CLR 00/M01 A3006 RMK AO2
Loading
Personal Weather Stations






























Interactive Weather Map New forecast layout! Learn more

10-Day Weather Forecast

Advertisements
Track Severe Weather on mobile